sensor_id;sensor_type;location;lat;lon;timestamp;temperature;humidity
20349;DHT22;10332;50.208;18.988;2022-09-09T00:00:14;18.00;99.90
20349;DHT22;10332;50.208;18.988;2022-09-09T00:03:26;18.00;99.90
20349;DHT22;10332;50.208;18.988;2022-09-09T00:06:08;17.90;99.90
20349;DHT22;10332;50.208;18.988;2022-09-09T00:09:16;17.90;99.90
20349;DHT22;10332;50.208;18.988;2022-09-09T00:11:52;17.80;99.90
20349;DHT22;10332;50.208;18.988;2022-09-09T00:15:22;17.80;99.90
20349;DHT22;10332;50.208;18.988;2022-09-09T00:20:58;17.70;99.90
20349;DHT22;10332;50.208;18.988;2022-09-09T00:23:39;17.70;99.90
20349;DHT22;10332;50.208;18.988;2022-09-09T00:31:34;17.60;99.90
20349;DHT22;10332;50.208;18.988;2022-09-09T00:34:21;17.60;99.90
20349;DHT22;10332;50.208;18.988;2022-09-09T00:36:52;17.50;99.90
20349;DHT22;10332;50.208;18.988;2022-09-09T00:42:20;17.50;99.90
20349;DHT22;10332;50.208;18.988;2022-09-09T00:45:30;17.40;99.90
20349;DHT22;10332;50.208;18.988;2022-09-09T00:48:25;17.40;99.90
20349;DHT22;10332;50.208;18.988;2022-09-09T00:51:55;17.40;99.90
20349;DHT22;10332;50.208;18.988;2022-09-09T00:54:34;17.40;99.90
20349;DHT22;10332;50.208;18.988;2022-09-09T01:00:44;17.30;99.90
20349;DHT22;10332;50.208;18.988;2022-09-09T01:06:30;17.20;99.90
20349;DHT22;10332;50.208;18.988;2022-09-09T01:17:17;17.10;99.90
20349;DHT22;10332;50.208;18.988;2022-09-09T01:26:15;17.00;99.90
20349;DHT22;10332;50.208;18.988;2022-09-09T01:28:48;17.00;99.90
20349;DHT22;10332;50.208;18.988;2022-09-09T01:31:23;17.00;99.90
20349;DHT22;10332;50.208;18.988;2022-09-09T01:33:57;16.90;99.90
20349;DHT22;10332;50.208;18.988;2022-09-09T01:36:32;17.00;99.90
20349;DHT22;10332;50.208;18.988;2022-09-09T01:39:08;17.00;99.90
20349;DHT22;10332;50.208;18.988;2022-09-09T01:41:36;17.00;99.90
20349;DHT22;10332;50.208;18.988;2022-09-09T01:44:05;16.90;99.90
20349;DHT22;10332;50.208;18.988;2022-09-09T01:46:34;16.90;99.90
20349;DHT22;10332;50.208;18.988;2022-09-09T01:49:04;16.90;99.90
20349;DHT22;10332;50.208;18.988;2022-09-09T01:51:34;16.80;99.90
20349;DHT22;10332;50.208;18.988;2022-09-09T01:54:04;16.80;99.90
20349;DHT22;10332;50.208;18.988;2022-09-09T02:02:44;16.90;99.90
20349;DHT22;10332;50.208;18.988;2022-09-09T02:05:38;16.90;99.90
20349;DHT22;10332;50.208;18.988;2022-09-09T02:08:15;16.80;99.90
20349;DHT22;10332;50.208;18.988;2022-09-09T02:13:22;16.70;99.90
20349;DHT22;10332;50.208;18.988;2022-09-09T02:15:56;16.70;99.90
20349;DHT22;10332;50.208;18.988;2022-09-09T02:18:35;16.80;99.90
20349;DHT22;10332;50.208;18.988;2022-09-09T02:21:08;16.70;99.90
20349;DHT22;10332;50.208;18.988;2022-09-09T02:23:40;16.80;99.90
20349;DHT22;10332;50.208;18.988;2022-09-09T02:26:12;16.80;99.90
20349;DHT22;10332;50.208;18.988;2022-09-09T02:28:50;16.80;99.90
20349;DHT22;10332;50.208;18.988;2022-09-09T02:31:23;16.70;99.90
20349;DHT22;10332;50.208;18.988;2022-09-09T02:33:55;16.70;99.90
20349;DHT22;10332;50.208;18.988;2022-09-09T02:36:29;16.70;99.90
20349;DHT22;10332;50.208;18.988;2022-09-09T02:39:00;16.60;99.90
20349;DHT22;10332;50.208;18.988;2022-09-09T02:41:37;16.60;99.90
20349;DHT22;10332;50.208;18.988;2022-09-09T02:44:14;16.60;99.90
20349;DHT22;10332;50.208;18.988;2022-09-09T02:47:13;16.60;99.90
20349;DHT22;10332;50.208;18.988;2022-09-09T02:55:50;16.50;99.90
20349;DHT22;10332;50.208;18.988;2022-09-09T02:58:24;16.50;99.90
20349;DHT22;10332;50.208;18.988;2022-09-09T03:00:53;16.50;99.90
20349;DHT22;10332;50.208;18.988;2022-09-09T03:03:20;16.50;99.90
20349;DHT22;10332;50.208;18.988;2022-09-09T03:05:49;16.40;99.90
20349;DHT22;10332;50.208;18.988;2022-09-09T03:08:16;16.40;99.90
20349;DHT22;10332;50.208;18.988;2022-09-09T03:10:44;16.40;99.90
20349;DHT22;10332;50.208;18.988;2022-09-09T03:13:11;16.40;99.90
20349;DHT22;10332;50.208;18.988;2022-09-09T03:15:42;16.30;99.90
20349;DHT22;10332;50.208;18.988;2022-09-09T03:18:10;16.30;99.90
20349;DHT22;10332;50.208;18.988;2022-09-09T03:20:37;16.30;99.90
20349;DHT22;10332;50.208;18.988;2022-09-09T03:23:04;16.30;99.90
20349;DHT22;10332;50.208;18.988;2022-09-09T03:25:32;16.20;99.90
20349;DHT22;10332;50.208;18.988;2022-09-09T03:28:01;16.20;99.90
20349;DHT22;10332;50.208;18.988;2022-09-09T03:30:28;16.20;99.90
20349;DHT22;10332;50.208;18.988;2022-09-09T03:32:56;16.20;99.90
20349;DHT22;10332;50.208;18.988;2022-09-09T03:35:24;16.10;99.90
20349;DHT22;10332;50.208;18.988;2022-09-09T03:37:51;16.10;99.90
20349;DHT22;10332;50.208;18.988;2022-09-09T03:40:19;16.00;99.90
20349;DHT22;10332;50.208;18.988;2022-09-09T03:42:47;16.00;99.90
20349;DHT22;10332;50.208;18.988;2022-09-09T03:45:15;16.00;99.90
20349;DHT22;10332;50.208;18.988;2022-09-09T03:47:43;16.00;99.90
20349;DHT22;10332;50.208;18.988;2022-09-09T03:50:11;15.90;99.90
20349;DHT22;10332;50.208;18.988;2022-09-09T03:52:40;15.90;99.90
20349;DHT22;10332;50.208;18.988;2022-09-09T03:55:09;15.90;99.90
20349;DHT22;10332;50.208;18.988;2022-09-09T03:57:37;15.90;99.90
20349;DHT22;10332;50.208;18.988;2022-09-09T04:00:06;15.90;99.90
20349;DHT22;10332;50.208;18.988;2022-09-09T04:02:34;15.90;99.90
20349;DHT22;10332;50.208;18.988;2022-09-09T04:05:02;15.90;99.90
20349;DHT22;10332;50.208;18.988;2022-09-09T04:07:29;15.90;99.90
20349;DHT22;10332;50.208;18.988;2022-09-09T04:09:56;15.90;99.90
20349;DHT22;10332;50.208;18.988;2022-09-09T04:12:24;15.90;99.90
20349;DHT22;10332;50.208;18.988;2022-09-09T04:14:51;15.90;99.90
20349;DHT22;10332;50.208;18.988;2022-09-09T04:17:18;15.90;99.90
20349;DHT22;10332;50.208;18.988;2022-09-09T04:19:46;15.80;99.90
20349;DHT22;10332;50.208;18.988;2022-09-09T04:22:13;15.80;99.90
20349;DHT22;10332;50.208;18.988;2022-09-09T04:24:41;15.80;99.90
20349;DHT22;10332;50.208;18.988;2022-09-09T04:27:14;15.80;99.90
20349;DHT22;10332;50.208;18.988;2022-09-09T04:29:41;15.80;99.90
20349;DHT22;10332;50.208;18.988;2022-09-09T04:32:09;15.80;99.90
20349;DHT22;10332;50.208;18.988;2022-09-09T04:34:36;15.80;99.90
20349;DHT22;10332;50.208;18.988;2022-09-09T04:37:04;15.80;99.90
20349;DHT22;10332;50.208;18.988;2022-09-09T04:39:31;15.80;99.90
20349;DHT22;10332;50.208;18.988;2022-09-09T04:41:58;15.80;99.90
20349;DHT22;10332;50.208;18.988;2022-09-09T04:44:26;15.80;99.90
20349;DHT22;10332;50.208;18.988;2022-09-09T04:46:53;15.90;99.90
20349;DHT22;10332;50.208;18.988;2022-09-09T04:49:20;15.90;99.90
20349;DHT22;10332;50.208;18.988;2022-09-09T04:51:49;15.90;99.90
20349;DHT22;10332;50.208;18.988;2022-09-09T04:54:16;16.00;99.90
20349;DHT22;10332;50.208;18.988;2022-09-09T04:56:43;16.00;99.90
20349;DHT22;10332;50.208;18.988;2022-09-09T04:59:11;16.10;99.90
20349;DHT22;10332;50.208;18.988;2022-09-09T05:01:38;16.20;99.90
20349;DHT22;10332;50.208;18.988;2022-09-09T05:04:05;16.20;99.90
20349;DHT22;10332;50.208;18.988;2022-09-09T05:06:34;16.20;99.90
20349;DHT22;10332;50.208;18.988;2022-09-09T05:09:03;16.20;99.90
20349;DHT22;10332;50.208;18.988;2022-09-09T05:11:32;16.30;99.90
20349;DHT22;10332;50.208;18.988;2022-09-09T05:14:02;16.30;99.90
20349;DHT22;10332;50.208;18.988;2022-09-09T05:16:30;16.40;99.90
20349;DHT22;10332;50.208;18.988;2022-09-09T05:18:58;16.50;99.90
20349;DHT22;10332;50.208;18.988;2022-09-09T05:21:26;16.50;99.90
20349;DHT22;10332;50.208;18.988;2022-09-09T05:23:53;16.50;99.90
20349;DHT22;10332;50.208;18.988;2022-09-09T05:26:22;16.50;99.90
20349;DHT22;10332;50.208;18.988;2022-09-09T05:28:49;16.50;99.90
20349;DHT22;10332;50.208;18.988;2022-09-09T05:31:18;16.60;99.90
20349;DHT22;10332;50.208;18.988;2022-09-09T05:33:48;16.60;99.90
20349;DHT22;10332;50.208;18.988;2022-09-09T05:36:21;16.60;99.90
20349;DHT22;10332;50.208;18.988;2022-09-09T05:38:50;16.70;99.90
20349;DHT22;10332;50.208;18.988;2022-09-09T05:41:17;16.70;99.90
20349;DHT22;10332;50.208;18.988;2022-09-09T05:43:45;16.70;99.90
20349;DHT22;10332;50.208;18.988;2022-09-09T05:46:21;16.70;99.90
20349;DHT22;10332;50.208;18.988;2022-09-09T05:48:51;16.70;99.90
20349;DHT22;10332;50.208;18.988;2022-09-09T05:51:21;16.70;99.90
20349;DHT22;10332;50.208;18.988;2022-09-09T05:53:51;16.70;99.90
20349;DHT22;10332;50.208;18.988;2022-09-09T05:56:21;16.80;99.90
20349;DHT22;10332;50.208;18.988;2022-09-09T05:58:52;16.80;99.90
20349;DHT22;10332;50.208;18.988;2022-09-09T06:01:29;16.80;99.90
20349;DHT22;10332;50.208;18.988;2022-09-09T06:04:01;16.80;99.90
20349;DHT22;10332;50.208;18.988;2022-09-09T06:06:35;16.90;99.90
20349;DHT22;10332;50.208;18.988;2022-09-09T06:09:05;17.00;99.90
20349;DHT22;10332;50.208;18.988;2022-09-09T06:11:38;17.00;99.90
20349;DHT22;10332;50.208;18.988;2022-09-09T06:14:07;17.10;99.90
20349;DHT22;10332;50.208;18.988;2022-09-09T06:16:35;17.10;99.90
20349;DHT22;10332;50.208;18.988;2022-09-09T06:19:04;17.20;99.90
20349;DHT22;10332;50.208;18.988;2022-09-09T06:21:36;17.30;99.90
20349;DHT22;10332;50.208;18.988;2022-09-09T06:24:04;17.40;99.90
20349;DHT22;10332;50.208;18.988;2022-09-09T06:26:34;17.50;99.90
20349;DHT22;10332;50.208;18.988;2022-09-09T06:29:04;17.60;99.90
20349;DHT22;10332;50.208;18.988;2022-09-09T06:31:33;17.70;99.90
20349;DHT22;10332;50.208;18.988;2022-09-09T06:34:05;17.80;99.90
20349;DHT22;10332;50.208;18.988;2022-09-09T06:36:36;17.90;99.90
20349;DHT22;10332;50.208;18.988;2022-09-09T06:39:06;18.00;99.90
20349;DHT22;10332;50.208;18.988;2022-09-09T06:41:40;18.20;99.90
20349;DHT22;10332;50.208;18.988;2022-09-09T06:44:09;18.30;99.90
20349;DHT22;10332;50.208;18.988;2022-09-09T06:46:38;18.30;99.90
20349;DHT22;10332;50.208;18.988;2022-09-09T06:49:08;18.40;99.90
20349;DHT22;10332;50.208;18.988;2022-09-09T06:51:37;18.50;99.90
20349;DHT22;10332;50.208;18.988;2022-09-09T06:54:11;18.70;99.90
20349;DHT22;10332;50.208;18.988;2022-09-09T06:56:40;18.90;99.90
20349;DHT22;10332;50.208;18.988;2022-09-09T06:59:11;19.20;99.90
20349;DHT22;10332;50.208;18.988;2022-09-09T07:01:41;20.40;99.90
20349;DHT22;10332;50.208;18.988;2022-09-09T07:04:18;23.50;99.90
20349;DHT22;10332;50.208;18.988;2022-09-09T07:06:46;26.60;95.10
20349;DHT22;10332;50.208;18.988;2022-09-09T07:09:15;28.20;80.80
20349;DHT22;10332;50.208;18.988;2022-09-09T07:11:45;28.60;78.90
20349;DHT22;10332;50.208;18.988;2022-09-09T07:14:15;30.80;61.00
20349;DHT22;10332;50.208;18.988;2022-09-09T07:16:43;32.40;34.90
20349;DHT22;10332;50.208;18.988;2022-09-09T07:19:13;32.60;22.50
20349;DHT22;10332;50.208;18.988;2022-09-09T07:21:42;32.50;15.50
20349;DHT22;10332;50.208;18.988;2022-09-09T07:24:10;33.40;14.00
20349;DHT22;10332;50.208;18.988;2022-09-09T07:26:40;33.90;4.60
20349;DHT22;10332;50.208;18.988;2022-09-09T07:29:08;35.00;1.00
20349;DHT22;10332;50.208;18.988;2022-09-09T07:31:38;36.70;1.00
20349;DHT22;10332;50.208;18.988;2022-09-09T07:34:07;36.00;1.00
20349;DHT22;10332;50.208;18.988;2022-09-09T07:36:36;35.50;1.00
20349;DHT22;10332;50.208;18.988;2022-09-09T07:39:08;35.30;1.00
20349;DHT22;10332;50.208;18.988;2022-09-09T07:41:42;36.60;1.00
20349;DHT22;10332;50.208;18.988;2022-09-09T07:44:14;38.60;1.00
20349;DHT22;10332;50.208;18.988;2022-09-09T07:46:49;41.30;1.00
20349;DHT22;10332;50.208;18.988;2022-09-09T07:49:17;43.30;1.00
20349;DHT22;10332;50.208;18.988;2022-09-09T07:51:52;44.60;1.00
20349;DHT22;10332;50.208;18.988;2022-09-09T07:54:20;45.20;1.00
20349;DHT22;10332;50.208;18.988;2022-09-09T07:56:51;45.70;1.00
20349;DHT22;10332;50.208;18.988;2022-09-09T07:59:21;46.20;1.00
20349;DHT22;10332;50.208;18.988;2022-09-09T08:01:50;46.00;1.00
20349;DHT22;10332;50.208;18.988;2022-09-09T08:04:23;46.60;1.00
20349;DHT22;10332;50.208;18.988;2022-09-09T08:06:55;48.00;1.00
20349;DHT22;10332;50.208;18.988;2022-09-09T08:09:25;49.50;1.00
20349;DHT22;10332;50.208;18.988;2022-09-09T08:11:54;50.40;1.00
20349;DHT22;10332;50.208;18.988;2022-09-09T08:14:26;50.50;1.00
20349;DHT22;10332;50.208;18.988;2022-09-09T08:16:54;50.60;1.00
20349;DHT22;10332;50.208;18.988;2022-09-09T08:19:23;49.10;1.00
20349;DHT22;10332;50.208;18.988;2022-09-09T08:21:50;48.50;1.00
20349;DHT22;10332;50.208;18.988;2022-09-09T08:24:17;46.20;1.00
20349;DHT22;10332;50.208;18.988;2022-09-09T08:26:48;43.70;1.00
20349;DHT22;10332;50.208;18.988;2022-09-09T08:29:16;42.10;1.00
20349;DHT22;10332;50.208;18.988;2022-09-09T08:31:48;40.60;1.00
20349;DHT22;10332;50.208;18.988;2022-09-09T08:34:18;40.40;1.00
20349;DHT22;10332;50.208;18.988;2022-09-09T08:36:48;40.40;1.00
20349;DHT22;10332;50.208;18.988;2022-09-09T08:39:18;40.60;1.00
20349;DHT22;10332;50.208;18.988;2022-09-09T08:45:14;39.70;1.00
20349;DHT22;10332;50.208;18.988;2022-09-09T08:48:04;38.10;1.00
20349;DHT22;10332;50.208;18.988;2022-09-09T08:50:37;36.50;1.00
20349;DHT22;10332;50.208;18.988;2022-09-09T08:56:02;33.80;1.00
20349;DHT22;10332;50.208;18.988;2022-09-09T08:58:47;34.10;1.00
20349;DHT22;10332;50.208;18.988;2022-09-09T09:01:31;33.50;1.00
20349;DHT22;10332;50.208;18.988;2022-09-09T09:10:09;35.90;1.00
20349;DHT22;10332;50.208;18.988;2022-09-09T09:12:57;34.50;1.00
20349;DHT22;10332;50.208;18.988;2022-09-09T09:15:29;33.00;1.00
20349;DHT22;10332;50.208;18.988;2022-09-09T09:18:04;32.00;1.00
20349;DHT22;10332;50.208;18.988;2022-09-09T09:23:21;31.00;1.00
20349;DHT22;10332;50.208;18.988;2022-09-09T09:25:56;31.30;1.00
20349;DHT22;10332;50.208;18.988;2022-09-09T09:28:29;30.60;1.00
20349;DHT22;10332;50.208;18.988;2022-09-09T09:31:08;29.90;1.00
20349;DHT22;10332;50.208;18.988;2022-09-09T09:33:48;29.50;1.00
20349;DHT22;10332;50.208;18.988;2022-09-09T09:36:24;30.40;1.00
20349;DHT22;10332;50.208;18.988;2022-09-09T09:39:02;33.80;1.00
20349;DHT22;10332;50.208;18.988;2022-09-09T09:41:53;38.30;1.00
20349;DHT22;10332;50.208;18.988;2022-09-09T09:44:29;42.70;1.00
20349;DHT22;10332;50.208;18.988;2022-09-09T09:47:10;41.90;1.00
20349;DHT22;10332;50.208;18.988;2022-09-09T09:49:57;40.20;1.00
20349;DHT22;10332;50.208;18.988;2022-09-09T09:52:28;41.10;1.00
20349;DHT22;10332;50.208;18.988;2022-09-09T09:54:58;41.10;1.00
20349;DHT22;10332;50.208;18.988;2022-09-09T09:57:34;40.40;1.00
20349;DHT22;10332;50.208;18.988;2022-09-09T10:00:17;39.90;1.00
20349;DHT22;10332;50.208;18.988;2022-09-09T10:02:50;39.40;1.00
20349;DHT22;10332;50.208;18.988;2022-09-09T10:05:24;38.50;1.00
20349;DHT22;10332;50.208;18.988;2022-09-09T10:08:13;39.30;1.00
20349;DHT22;10332;50.208;18.988;2022-09-09T10:19:05;38.90;1.00
20349;DHT22;10332;50.208;18.988;2022-09-09T10:21:52;38.40;1.00
20349;DHT22;10332;50.208;18.988;2022-09-09T10:24:48;38.50;1.00
20349;DHT22;10332;50.208;18.988;2022-09-09T10:33:51;40.70;1.00
20349;DHT22;10332;50.208;18.988;2022-09-09T10:36:25;39.80;1.00
20349;DHT22;10332;50.208;18.988;2022-09-09T10:42:09;38.00;1.00
20349;DHT22;10332;50.208;18.988;2022-09-09T10:45:06;37.30;1.00
20349;DHT22;10332;50.208;18.988;2022-09-09T10:53:41;46.30;1.00
20349;DHT22;10332;50.208;18.988;2022-09-09T10:56:33;51.00;1.00
20349;DHT22;10332;50.208;18.988;2022-09-09T10:59:13;48.60;1.00
20349;DHT22;10332;50.208;18.988;2022-09-09T11:05:05;46.40;1.00
20349;DHT22;10332;50.208;18.988;2022-09-09T11:07:53;47.00;1.00
20349;DHT22;10332;50.208;18.988;2022-09-09T11:10:38;46.80;1.00
20349;DHT22;10332;50.208;18.988;2022-09-09T11:19:34;47.00;1.00
20349;DHT22;10332;50.208;18.988;2022-09-09T11:25:26;43.30;1.00
20349;DHT22;10332;50.208;18.988;2022-09-09T11:34:18;47.40;1.00
20349;DHT22;10332;50.208;18.988;2022-09-09T11:40:14;50.60;1.00
20349;DHT22;10332;50.208;18.988;2022-09-09T11:42:49;50.50;1.00
20349;DHT22;10332;50.208;18.988;2022-09-09T11:45:54;51.00;1.00
20349;DHT22;10332;50.208;18.988;2022-09-09T11:48:34;53.00;1.00
20349;DHT22;10332;50.208;18.988;2022-09-09T11:51:09;53.90;1.00
20349;DHT22;10332;50.208;18.988;2022-09-09T11:56:34;53.50;1.00
20349;DHT22;10332;50.208;18.988;2022-09-09T11:59:27;53.70;1.00
20349;DHT22;10332;50.208;18.988;2022-09-09T12:02:18;54.10;1.00
20349;DHT22;10332;50.208;18.988;2022-09-09T12:05:01;54.00;1.00
20349;DHT22;10332;50.208;18.988;2022-09-09T12:07:37;53.40;1.00
20349;DHT22;10332;50.208;18.988;2022-09-09T12:10:35;50.40;1.00
20349;DHT22;10332;50.208;18.988;2022-09-09T12:13:20;47.80;1.00
20349;DHT22;10332;50.208;18.988;2022-09-09T12:15:55;47.10;1.00
20349;DHT22;10332;50.208;18.988;2022-09-09T12:18:36;47.40;1.00
20349;DHT22;10332;50.208;18.988;2022-09-09T12:24:17;48.40;1.00
20349;DHT22;10332;50.208;18.988;2022-09-09T12:27:15;48.10;1.00
20349;DHT22;10332;50.208;18.988;2022-09-09T12:29:58;48.80;1.00
20349;DHT22;10332;50.208;18.988;2022-09-09T12:32:29;49.80;1.00
20349;DHT22;10332;50.208;18.988;2022-09-09T12:35:04;50.10;1.00
20349;DHT22;10332;50.208;18.988;2022-09-09T12:37:46;49.60;1.00
20349;DHT22;10332;50.208;18.988;2022-09-09T12:40:21;49.50;1.00
20349;DHT22;10332;50.208;18.988;2022-09-09T12:42:49;49.50;1.00
20349;DHT22;10332;50.208;18.988;2022-09-09T12:45:25;49.10;1.00
20349;DHT22;10332;50.208;18.988;2022-09-09T12:48:06;48.00;1.00
20349;DHT22;10332;50.208;18.988;2022-09-09T12:50:44;46.80;1.00
20349;DHT22;10332;50.208;18.988;2022-09-09T12:53:45;45.70;1.00
20349;DHT22;10332;50.208;18.988;2022-09-09T12:56:25;45.20;1.00
20349;DHT22;10332;50.208;18.988;2022-09-09T12:58:57;44.30;1.00
20349;DHT22;10332;50.208;18.988;2022-09-09T13:01:30;43.60;1.00
20349;DHT22;10332;50.208;18.988;2022-09-09T13:04:00;43.10;1.00
20349;DHT22;10332;50.208;18.988;2022-09-09T13:06:30;42.90;1.00
20349;DHT22;10332;50.208;18.988;2022-09-09T13:08:59;42.60;1.00
20349;DHT22;10332;50.208;18.988;2022-09-09T13:11:49;42.00;1.00
20349;DHT22;10332;50.208;18.988;2022-09-09T13:14:34;41.30;1.00
20349;DHT22;10332;50.208;18.988;2022-09-09T13:17:14;40.30;1.00
20349;DHT22;10332;50.208;18.988;2022-09-09T13:19:48;39.00;1.00
20349;DHT22;10332;50.208;18.988;2022-09-09T13:22:34;37.70;1.00
20349;DHT22;10332;50.208;18.988;2022-09-09T13:27:34;35.70;1.00
20349;DHT22;10332;50.208;18.988;2022-09-09T13:30:25;35.10;1.00
20349;DHT22;10332;50.208;18.988;2022-09-09T13:35:47;34.30;1.00
20349;DHT22;10332;50.208;18.988;2022-09-09T13:38:17;34.10;1.00
20349;DHT22;10332;50.208;18.988;2022-09-09T13:41:07;34.10;1.00
20349;DHT22;10332;50.208;18.988;2022-09-09T13:43:44;34.40;1.00
20349;DHT22;10332;50.208;18.988;2022-09-09T13:46:38;34.50;1.00
20349;DHT22;10332;50.208;18.988;2022-09-09T13:51:39;34.50;1.00
20349;DHT22;10332;50.208;18.988;2022-09-09T13:54:14;34.90;1.00
20349;DHT22;10332;50.208;18.988;2022-09-09T13:56:48;35.70;1.00
20349;DHT22;10332;50.208;18.988;2022-09-09T13:59:18;36.90;1.00
20349;DHT22;10332;50.208;18.988;2022-09-09T14:01:47;38.20;1.00
20349;DHT22;10332;50.208;18.988;2022-09-09T14:04:15;38.70;1.00
20349;DHT22;10332;50.208;18.988;2022-09-09T14:06:46;38.80;1.00
20349;DHT22;10332;50.208;18.988;2022-09-09T14:09:16;39.30;1.00
20349;DHT22;10332;50.208;18.988;2022-09-09T14:11:45;39.80;1.00
20349;DHT22;10332;50.208;18.988;2022-09-09T14:14:13;39.70;1.00
20349;DHT22;10332;50.208;18.988;2022-09-09T14:16:40;39.20;1.00
20349;DHT22;10332;50.208;18.988;2022-09-09T14:19:08;38.20;1.00
20349;DHT22;10332;50.208;18.988;2022-09-09T14:21:36;37.20;1.00
20349;DHT22;10332;50.208;18.988;2022-09-09T14:24:04;36.20;1.00
20349;DHT22;10332;50.208;18.988;2022-09-09T14:26:31;35.40;1.00
20349;DHT22;10332;50.208;18.988;2022-09-09T14:28:59;34.90;1.00
20349;DHT22;10332;50.208;18.988;2022-09-09T14:31:29;34.50;1.00
20349;DHT22;10332;50.208;18.988;2022-09-09T14:33:56;34.00;1.00
20349;DHT22;10332;50.208;18.988;2022-09-09T14:36:23;33.50;1.00
20349;DHT22;10332;50.208;18.988;2022-09-09T14:38:51;33.00;1.00
20349;DHT22;10332;50.208;18.988;2022-09-09T14:41:19;32.50;1.00
20349;DHT22;10332;50.208;18.988;2022-09-09T14:43:49;32.00;1.00
20349;DHT22;10332;50.208;18.988;2022-09-09T14:46:20;31.60;1.00
20349;DHT22;10332;50.208;18.988;2022-09-09T14:48:49;31.10;1.00
20349;DHT22;10332;50.208;18.988;2022-09-09T14:51:21;30.90;1.00
20349;DHT22;10332;50.208;18.988;2022-09-09T14:53:55;30.60;1.00
20349;DHT22;10332;50.208;18.988;2022-09-09T14:56:28;30.40;1.00
20349;DHT22;10332;50.208;18.988;2022-09-09T14:58:59;30.20;1.00
20349;DHT22;10332;50.208;18.988;2022-09-09T15:01:28;29.90;1.00
20349;DHT22;10332;50.208;18.988;2022-09-09T15:04:01;29.70;1.00
20349;DHT22;10332;50.208;18.988;2022-09-09T15:06:33;29.60;1.00
20349;DHT22;10332;50.208;18.988;2022-09-09T15:09:05;29.50;1.00
20349;DHT22;10332;50.208;18.988;2022-09-09T15:11:37;29.40;1.00
20349;DHT22;10332;50.208;18.988;2022-09-09T15:14:06;29.40;1.00
20349;DHT22;10332;50.208;18.988;2022-09-09T15:16:35;29.20;1.00
20349;DHT22;10332;50.208;18.988;2022-09-09T15:19:03;29.00;1.00
20349;DHT22;10332;50.208;18.988;2022-09-09T15:21:33;28.90;1.00
20349;DHT22;10332;50.208;18.988;2022-09-09T15:24:03;28.60;1.00
20349;DHT22;10332;50.208;18.988;2022-09-09T15:26:31;28.30;1.00
20349;DHT22;10332;50.208;18.988;2022-09-09T15:28:58;28.00;1.00
20349;DHT22;10332;50.208;18.988;2022-09-09T15:31:31;27.80;1.00
20349;DHT22;10332;50.208;18.988;2022-09-09T15:34:00;27.50;1.00
20349;DHT22;10332;50.208;18.988;2022-09-09T15:36:56;27.30;1.00
20349;DHT22;10332;50.208;18.988;2022-09-09T15:39:24;27.00;1.00
20349;DHT22;10332;50.208;18.988;2022-09-09T15:41:51;26.80;1.00
20349;DHT22;10332;50.208;18.988;2022-09-09T15:44:19;26.60;1.00
20349;DHT22;10332;50.208;18.988;2022-09-09T15:46:49;26.40;1.00
20349;DHT22;10332;50.208;18.988;2022-09-09T15:49:19;26.20;1.00
20349;DHT22;10332;50.208;18.988;2022-09-09T15:51:56;26.00;1.00
20349;DHT22;10332;50.208;18.988;2022-09-09T15:54:26;25.80;1.00
20349;DHT22;10332;50.208;18.988;2022-09-09T15:56:55;25.70;1.00
20349;DHT22;10332;50.208;18.988;2022-09-09T15:59:25;25.60;1.00
20349;DHT22;10332;50.208;18.988;2022-09-09T16:01:55;25.60;1.00
20349;DHT22;10332;50.208;18.988;2022-09-09T16:04:24;25.50;1.00
20349;DHT22;10332;50.208;18.988;2022-09-09T16:06:57;25.50;1.00
20349;DHT22;10332;50.208;18.988;2022-09-09T16:09:27;25.40;1.00
20349;DHT22;10332;50.208;18.988;2022-09-09T16:11:59;25.30;1.00
20349;DHT22;10332;50.208;18.988;2022-09-09T16:14:28;25.20;1.00
20349;DHT22;10332;50.208;18.988;2022-09-09T16:17:01;25.10;1.00
20349;DHT22;10332;50.208;18.988;2022-09-09T16:19:30;25.00;1.00
20349;DHT22;10332;50.208;18.988;2022-09-09T16:21:58;24.90;1.00
20349;DHT22;10332;50.208;18.988;2022-09-09T16:24:26;24.80;1.00
20349;DHT22;10332;50.208;18.988;2022-09-09T16:26:54;24.70;1.00
20349;DHT22;10332;50.208;18.988;2022-09-09T16:29:23;24.60;1.00
20349;DHT22;10332;50.208;18.988;2022-09-09T16:31:54;24.40;1.00
20349;DHT22;10332;50.208;18.988;2022-09-09T16:34:29;24.30;1.00
20349;DHT22;10332;50.208;18.988;2022-09-09T16:36:57;24.10;1.00
20349;DHT22;10332;50.208;18.988;2022-09-09T16:39:24;23.90;1.00
20349;DHT22;10332;50.208;18.988;2022-09-09T16:41:51;23.70;1.00
20349;DHT22;10332;50.208;18.988;2022-09-09T16:44:19;23.60;1.80
20349;DHT22;10332;50.208;18.988;2022-09-09T16:46:48;23.40;9.20
20349;DHT22;10332;50.208;18.988;2022-09-09T16:49:15;23.30;16.20
20349;DHT22;10332;50.208;18.988;2022-09-09T16:51:45;23.20;23.50
20349;DHT22;10332;50.208;18.988;2022-09-09T16:54:16;23.20;29.10
20349;DHT22;10332;50.208;18.988;2022-09-09T16:56:47;23.10;34.30
20349;DHT22;10332;50.208;18.988;2022-09-09T16:59:17;23.00;39.20
20349;DHT22;10332;50.208;18.988;2022-09-09T17:01:48;22.90;45.00
20349;DHT22;10332;50.208;18.988;2022-09-09T17:04:22;22.70;49.80
20349;DHT22;10332;50.208;18.988;2022-09-09T17:06:54;22.60;52.70
20349;DHT22;10332;50.208;18.988;2022-09-09T17:09:25;22.40;55.00
20349;DHT22;10332;50.208;18.988;2022-09-09T17:11:56;22.30;56.50
20349;DHT22;10332;50.208;18.988;2022-09-09T17:14:23;22.10;58.40
20349;DHT22;10332;50.208;18.988;2022-09-09T17:16:51;22.00;61.10
20349;DHT22;10332;50.208;18.988;2022-09-09T17:19:18;21.90;62.50
20349;DHT22;10332;50.208;18.988;2022-09-09T17:21:46;21.80;63.90
20349;DHT22;10332;50.208;18.988;2022-09-09T17:24:35;21.70;65.30
20349;DHT22;10332;50.208;18.988;2022-09-09T17:27:05;21.60;67.90
20349;DHT22;10332;50.208;18.988;2022-09-09T17:29:32;21.40;68.50
20349;DHT22;10332;50.208;18.988;2022-09-09T17:32:03;21.40;69.30
20349;DHT22;10332;50.208;18.988;2022-09-09T17:34:33;21.30;72.70
20349;DHT22;10332;50.208;18.988;2022-09-09T17:37:02;21.20;73.70
20349;DHT22;10332;50.208;18.988;2022-09-09T17:39:29;21.10;76.10
20349;DHT22;10332;50.208;18.988;2022-09-09T17:41:57;21.00;76.90
20349;DHT22;10332;50.208;18.988;2022-09-09T17:44:24;20.90;76.80
20349;DHT22;10332;50.208;18.988;2022-09-09T17:46:52;20.90;77.60
20349;DHT22;10332;50.208;18.988;2022-09-09T17:49:19;20.80;79.30
20349;DHT22;10332;50.208;18.988;2022-09-09T17:51:46;20.70;80.00
20349;DHT22;10332;50.208;18.988;2022-09-09T17:54:17;20.70;81.80
20349;DHT22;10332;50.208;18.988;2022-09-09T17:56:47;20.60;81.00
20349;DHT22;10332;50.208;18.988;2022-09-09T17:59:17;20.60;81.70
20349;DHT22;10332;50.208;18.988;2022-09-09T18:01:47;20.50;82.00